sensor_id;sensor_type;location;lat;lon;timestamp;pressure;altitude;pressure_sealevel;temperature;humidity
43621;BME280;29213;50.770;7.298;2023-01-28T00:01:23;101964.22;;;2.92;56.53
43621;BME280;29213;50.770;7.298;2023-01-28T00:03:49;101879.16;;;2.40;56.49
43621;BME280;29213;50.770;7.298;2023-01-28T00:06:16;101892.69;;;2.50;56.62
43621;BME280;29213;50.770;7.298;2023-01-28T00:08:43;101959.88;;;2.91;56.63
43621;BME280;29213;50.770;7.298;2023-01-28T00:11:10;101853.69;;;2.23;56.17
43621;BME280;29213;50.770;7.298;2023-01-28T00:13:36;101810.16;;;1.99;56.34
43621;BME280;29213;50.770;7.298;2023-01-28T00:16:03;101931.66;;;2.77;56.15
43621;BME280;29213;50.770;7.298;2023-01-28T00:18:30;101932.41;;;2.79;56.49
43621;BME280;29213;50.770;7.298;2023-01-28T00:21:06;101951.22;;;2.89;56.53
43621;BME280;29213;50.770;7.298;2023-01-28T00:23:35;101896.94;;;2.52;56.39
43621;BME280;29213;50.770;7.298;2023-01-28T00:26:03;101953.06;;;2.87;56.85
43621;BME280;29213;50.770;7.298;2023-01-28T00:28:29;101953.94;;;2.87;56.52
43621;BME280;29213;50.770;7.298;2023-01-28T00:30:54;101897.63;;;2.56;56.34
43621;BME280;29213;50.770;7.298;2023-01-28T00:33:20;101946.97;;;2.86;56.09
43621;BME280;29213;50.770;7.298;2023-01-28T00:35:45;101935.13;;;2.77;56.11
43621;BME280;29213;50.770;7.298;2023-01-28T00:38:11;101935.28;;;2.74;56.50
43621;BME280;29213;50.770;7.298;2023-01-28T00:40:37;101901.88;;;2.59;56.82
43621;BME280;29213;50.770;7.298;2023-01-28T00:43:02;101901.50;;;2.49;56.42
43621;BME280;29213;50.770;7.298;2023-01-28T00:45:28;101837.41;;;2.16;56.63
43621;BME280;29213;50.770;7.298;2023-01-28T00:47:53;101783.97;;;1.80;56.50
43621;BME280;29213;50.770;7.298;2023-01-28T00:50:19;101941.00;;;2.82;56.20
43621;BME280;29213;50.770;7.298;2023-01-28T00:52:46;101773.66;;;1.75;56.53
43621;BME280;29213;50.770;7.298;2023-01-28T00:55:12;101909.75;;;2.59;56.31
43621;BME280;29213;50.770;7.298;2023-01-28T00:57:38;101591.91;;;0.63;56.36
43621;BME280;29213;50.770;7.298;2023-01-28T01:00:04;101949.06;;;2.79;56.42
43621;BME280;29213;50.770;7.298;2023-01-28T01:02:30;101930.41;;;2.66;55.80
43621;BME280;29213;50.770;7.298;2023-01-28T01:04:56;101719.44;;;1.39;55.77
43621;BME280;29213;50.770;7.298;2023-01-28T01:07:29;101943.09;;;2.76;55.53
43621;BME280;29213;50.770;7.298;2023-01-28T01:10:00;101929.72;;;2.63;55.84
43621;BME280;29213;50.770;7.298;2023-01-28T01:12:26;101840.06;;;1.97;55.25
43621;BME280;29213;50.770;7.298;2023-01-28T01:14:51;101868.22;;;2.12;55.74
43621;BME280;29213;50.770;7.298;2023-01-28T01:17:17;101940.09;;;2.48;55.60
43621;BME280;29213;50.770;7.298;2023-01-28T01:19:43;101940.63;;;2.55;56.42
43621;BME280;29213;50.770;7.298;2023-01-28T01:22:08;101760.38;;;1.43;56.27
43621;BME280;29213;50.770;7.298;2023-01-28T01:24:33;101880.31;;;2.17;55.96
43621;BME280;29213;50.770;7.298;2023-01-28T01:26:59;101753.97;;;1.49;56.12
43621;BME280;29213;50.770;7.298;2023-01-28T01:29:24;101731.06;;;1.33;55.95
43621;BME280;29213;50.770;7.298;2023-01-28T01:31:50;101794.78;;;1.74;56.44
43621;BME280;29213;50.770;7.298;2023-01-28T01:34:15;101932.50;;;2.60;56.28
43621;BME280;29213;50.770;7.298;2023-01-28T01:36:41;101849.06;;;2.10;55.71
43621;BME280;29213;50.770;7.298;2023-01-28T01:39:11;101916.41;;;2.48;55.75
43621;BME280;29213;50.770;7.298;2023-01-28T01:41:37;101890.69;;;2.37;55.85
43621;BME280;29213;50.770;7.298;2023-01-28T01:44:04;101958.03;;;2.75;55.82
43621;BME280;29213;50.770;7.298;2023-01-28T01:46:38;101850.56;;;2.16;55.71
43621;BME280;29213;50.770;7.298;2023-01-28T01:49:13;101917.97;;;2.52;55.48
43621;BME280;29213;50.770;7.298;2023-01-28T01:51:40;101858.75;;;2.27;55.51
43621;BME280;29213;50.770;7.298;2023-01-28T01:54:06;101910.00;;;2.54;55.10
43621;BME280;29213;50.770;7.298;2023-01-28T01:56:37;101937.06;;;2.74;55.31
43621;BME280;29213;50.770;7.298;2023-01-28T01:59:05;101763.53;;;1.68;55.59
43621;BME280;29213;50.770;7.298;2023-01-28T02:01:34;101870.88;;;2.30;55.40
43621;BME280;29213;50.770;7.298;2023-01-28T02:04:04;101953.84;;;2.71;55.43
43621;BME280;29213;50.770;7.298;2023-01-28T02:06:34;101958.28;;;2.71;54.92
43621;BME280;29213;50.770;7.298;2023-01-28T02:09:00;101897.09;;;2.32;55.61
43621;BME280;29213;50.770;7.298;2023-01-28T02:11:29;101972.38;;;2.70;55.61
43621;BME280;29213;50.770;7.298;2023-01-28T02:13:57;101969.63;;;2.71;54.93
43621;BME280;29213;50.770;7.298;2023-01-28T02:16:25;101935.75;;;2.47;55.53
43621;BME280;29213;50.770;7.298;2023-01-28T02:18:50;101915.41;;;2.33;55.43
43621;BME280;29213;50.770;7.298;2023-01-28T02:21:37;101922.44;;;2.33;55.30
43621;BME280;29213;50.770;7.298;2023-01-28T02:24:28;101954.78;;;2.52;55.69
43621;BME280;29213;50.770;7.298;2023-01-28T02:27:21;101976.31;;;2.61;55.97
43621;BME280;29213;50.770;7.298;2023-01-28T02:32:21;101892.88;;;2.10;55.23
43621;BME280;29213;50.770;7.298;2023-01-28T02:35:09;101968.88;;;2.51;55.64
43621;BME280;29213;50.770;7.298;2023-01-28T02:40:27;101967.38;;;2.46;55.54
43621;BME280;29213;50.770;7.298;2023-01-28T02:42:55;101897.72;;;2.00;55.27
43621;BME280;29213;50.770;7.298;2023-01-28T02:45:24;101964.94;;;2.43;55.12
43621;BME280;29213;50.770;7.298;2023-01-28T02:48:10;101973.88;;;2.38;55.79
43621;BME280;29213;50.770;7.298;2023-01-28T02:50:47;101916.97;;;2.00;55.86
43621;BME280;29213;50.770;7.298;2023-01-28T02:53:32;101932.56;;;2.05;55.99
43621;BME280;29213;50.770;7.298;2023-01-28T03:01:27;101956.34;;;2.02;55.71
43621;BME280;29213;50.770;7.298;2023-01-28T03:04:02;101963.59;;;1.97;56.16
43621;BME280;29213;50.770;7.298;2023-01-28T03:06:35;101974.72;;;2.02;56.19
43621;BME280;29213;50.770;7.298;2023-01-28T03:09:05;101974.94;;;1.97;56.27
43621;BME280;29213;50.770;7.298;2023-01-28T03:14:39;101915.34;;;1.42;56.26
43621;BME280;29213;50.770;7.298;2023-01-28T03:17:29;101992.34;;;1.81;55.87
43621;BME280;29213;50.770;7.298;2023-01-28T03:20:15;101897.38;;;1.13;56.43
43621;BME280;29213;50.770;7.298;2023-01-28T03:23:07;101945.56;;;1.31;56.19
43621;BME280;29213;50.770;7.298;2023-01-28T03:25:56;102007.81;;;1.68;56.07
43621;BME280;29213;50.770;7.298;2023-01-28T03:28:43;101935.41;;;1.24;55.99
43621;BME280;29213;50.770;7.298;2023-01-28T03:31:30;101877.84;;;0.80;56.15
43621;BME280;29213;50.770;7.298;2023-01-28T03:34:17;101939.00;;;1.21;56.52
43621;BME280;29213;50.770;7.298;2023-01-28T03:37:03;101999.66;;;1.55;56.03
43621;BME280;29213;50.770;7.298;2023-01-28T03:39:29;101948.81;;;1.17;56.04
43621;BME280;29213;50.770;7.298;2023-01-28T03:44:28;101997.38;;;1.47;56.54
43621;BME280;29213;50.770;7.298;2023-01-28T03:47:12;101997.06;;;1.34;56.10
43621;BME280;29213;50.770;7.298;2023-01-28T03:49:40;102033.00;;;1.53;56.16
43621;BME280;29213;50.770;7.298;2023-01-28T03:52:06;101990.41;;;1.27;56.32
43621;BME280;29213;50.770;7.298;2023-01-28T03:54:31;101979.09;;;1.25;56.20
43621;BME280;29213;50.770;7.298;2023-01-28T03:56:57;101955.25;;;1.10;56.20
43621;BME280;29213;50.770;7.298;2023-01-28T03:59:22;101992.09;;;1.28;56.27
43621;BME280;29213;50.770;7.298;2023-01-28T04:01:47;101947.06;;;0.97;56.10
43621;BME280;29213;50.770;7.298;2023-01-28T04:04:15;101901.31;;;0.63;55.99
43621;BME280;29213;50.770;7.298;2023-01-28T04:06:49;101905.84;;;0.59;55.94
43621;BME280;29213;50.770;7.298;2023-01-28T04:09:14;102025.03;;;1.35;55.88
43621;BME280;29213;50.770;7.298;2023-01-28T04:11:39;101980.69;;;1.08;55.63
43621;BME280;29213;50.770;7.298;2023-01-28T04:14:05;101928.06;;;0.71;56.00
43621;BME280;29213;50.770;7.298;2023-01-28T04:16:30;101857.59;;;0.22;55.61
43621;BME280;29213;50.770;7.298;2023-01-28T04:18:56;101866.13;;;0.27;55.76
43621;BME280;29213;50.770;7.298;2023-01-28T04:21:22;101942.03;;;0.72;55.75
43621;BME280;29213;50.770;7.298;2023-01-28T04:23:48;102015.59;;;1.10;55.69
43621;BME280;29213;50.770;7.298;2023-01-28T04:26:14;101886.16;;;0.28;55.89
43621;BME280;29213;50.770;7.298;2023-01-28T04:28:39;101880.31;;;0.21;56.00
43621;BME280;29213;50.770;7.298;2023-01-28T04:31:05;102003.19;;;0.93;55.64
43621;BME280;29213;50.770;7.298;2023-01-28T04:33:30;102038.16;;;1.14;55.65
43621;BME280;29213;50.770;7.298;2023-01-28T04:35:56;101969.56;;;0.61;55.63
43621;BME280;29213;50.770;7.298;2023-01-28T04:38:21;102040.22;;;1.07;55.30
43621;BME280;29213;50.770;7.298;2023-01-28T04:40:51;102022.56;;;0.90;55.69
43621;BME280;29213;50.770;7.298;2023-01-28T04:43:17;102045.06;;;0.96;55.75
43621;BME280;29213;50.770;7.298;2023-01-28T04:45:42;101856.84;;;-0.25;55.57
43621;BME280;29213;50.770;7.298;2023-01-28T04:48:08;102044.56;;;0.86;55.93
43621;BME280;29213;50.770;7.298;2023-01-28T04:50:33;102027.34;;;0.58;55.93
43621;BME280;29213;50.770;7.298;2023-01-28T04:52:58;102039.19;;;0.68;56.04
43621;BME280;29213;50.770;7.298;2023-01-28T04:55:24;101959.84;;;0.20;56.01
43621;BME280;29213;50.770;7.298;2023-01-28T04:57:49;101942.94;;;0.07;55.89
43621;BME280;29213;50.770;7.298;2023-01-28T05:00:15;102010.44;;;0.45;55.83
43621;BME280;29213;50.770;7.298;2023-01-28T05:02:41;102019.25;;;0.42;55.85
43621;BME280;29213;50.770;7.298;2023-01-28T05:05:06;102000.06;;;0.19;55.98
43621;BME280;29213;50.770;7.298;2023-01-28T05:07:34;101956.69;;;-0.10;56.05
43621;BME280;29213;50.770;7.298;2023-01-28T05:09:59;102006.88;;;0.01;56.13
43621;BME280;29213;50.770;7.298;2023-01-28T05:12:24;102066.81;;;0.33;56.59
43621;BME280;29213;50.770;7.298;2023-01-28T05:14:50;102067.47;;;0.38;56.24
43621;BME280;29213;50.770;7.298;2023-01-28T05:17:15;102067.44;;;0.39;56.46
43621;BME280;29213;50.770;7.298;2023-01-28T05:19:41;101935.88;;;-0.37;56.18
43621;BME280;29213;50.770;7.298;2023-01-28T05:22:07;101984.75;;;-0.14;55.93
43621;BME280;29213;50.770;7.298;2023-01-28T05:24:33;102014.63;;;0.04;56.44
43621;BME280;29213;50.770;7.298;2023-01-28T05:26:58;102007.84;;;-0.02;56.39
43621;BME280;29213;50.770;7.298;2023-01-28T05:29:24;102041.03;;;0.22;56.33
43621;BME280;29213;50.770;7.298;2023-01-28T05:31:49;101984.75;;;-0.14;56.07
43621;BME280;29213;50.770;7.298;2023-01-28T05:34:15;102070.47;;;0.28;56.16
43621;BME280;29213;50.770;7.298;2023-01-28T05:36:40;102061.31;;;0.17;55.94
43621;BME280;29213;50.770;7.298;2023-01-28T05:39:06;102074.13;;;0.24;56.16
43621;BME280;29213;50.770;7.298;2023-01-28T05:41:32;101918.84;;;-0.72;56.32
43621;BME280;29213;50.770;7.298;2023-01-28T05:43:57;102001.72;;;-0.24;56.42
43621;BME280;29213;50.770;7.298;2023-01-28T05:46:23;102024.72;;;-0.09;56.36
43621;BME280;29213;50.770;7.298;2023-01-28T05:48:50;102079.53;;;0.20;56.50
43621;BME280;29213;50.770;7.298;2023-01-28T05:51:16;102041.28;;;-0.08;57.21
43621;BME280;29213;50.770;7.298;2023-01-28T05:53:41;102077.28;;;0.10;57.41
43621;BME280;29213;50.770;7.298;2023-01-28T05:56:07;101950.28;;;-0.73;57.00
43621;BME280;29213;50.770;7.298;2023-01-28T05:58:32;102087.16;;;0.02;57.16
43621;BME280;29213;50.770;7.298;2023-01-28T06:00:58;102064.56;;;-0.24;57.90
43621;BME280;29213;50.770;7.298;2023-01-28T06:03:24;102097.06;;;-0.05;57.44
43621;BME280;29213;50.770;7.298;2023-01-28T06:05:49;102033.03;;;-0.45;57.60
43621;BME280;29213;50.770;7.298;2023-01-28T06:08:15;102057.81;;;-0.30;57.61
43621;BME280;29213;50.770;7.298;2023-01-28T06:10:40;102028.88;;;-0.51;57.94
43621;BME280;29213;50.770;7.298;2023-01-28T06:13:06;102080.88;;;-0.16;57.96
43621;BME280;29213;50.770;7.298;2023-01-28T06:15:31;102023.50;;;-0.48;57.49
43621;BME280;29213;50.770;7.298;2023-01-28T06:17:57;101794.16;;;-1.94;57.37
43621;BME280;29213;50.770;7.298;2023-01-28T06:20:23;101905.19;;;-1.29;57.57
43621;BME280;29213;50.770;7.298;2023-01-28T06:22:52;102036.00;;;-0.55;57.73
43621;BME280;29213;50.770;7.298;2023-01-28T06:25:17;102040.03;;;-0.46;57.79
43621;BME280;29213;50.770;7.298;2023-01-28T06:27:43;102054.56;;;-0.37;57.64
43621;BME280;29213;50.770;7.298;2023-01-28T06:30:09;102117.69;;;0.03;57.49
43621;BME280;29213;50.770;7.298;2023-01-28T06:32:34;102081.94;;;-0.22;57.39
43621;BME280;29213;50.770;7.298;2023-01-28T06:35:00;102066.50;;;-0.30;57.61
43621;BME280;29213;50.770;7.298;2023-01-28T06:37:25;102034.75;;;-0.44;57.54
43621;BME280;29213;50.770;7.298;2023-01-28T06:39:51;102131.63;;;0.05;57.89
43621;BME280;29213;50.770;7.298;2023-01-28T06:42:16;102045.97;;;-0.41;57.90
43621;BME280;29213;50.770;7.298;2023-01-28T06:44:41;102022.81;;;-0.53;57.68
43621;BME280;29213;50.770;7.298;2023-01-28T06:47:07;101963.88;;;-0.87;58.04
43621;BME280;29213;50.770;7.298;2023-01-28T06:49:33;102131.38;;;0.11;58.06
43621;BME280;29213;50.770;7.298;2023-01-28T06:51:59;102067.38;;;-0.29;57.81
43621;BME280;29213;50.770;7.298;2023-01-28T06:54:24;102061.31;;;-0.31;57.93
43621;BME280;29213;50.770;7.298;2023-01-28T06:56:50;102078.53;;;-0.24;57.81
43621;BME280;29213;50.770;7.298;2023-01-28T06:59:15;102040.59;;;-0.37;58.27
43621;BME280;29213;50.770;7.298;2023-01-28T07:01:40;101772.84;;;-2.07;57.98
43621;BME280;29213;50.770;7.298;2023-01-28T07:04:06;102029.78;;;-0.52;57.86
43621;BME280;29213;50.770;7.298;2023-01-28T07:06:31;102061.22;;;-0.28;57.85
43621;BME280;29213;50.770;7.298;2023-01-28T07:08:57;102005.09;;;-0.69;57.88
43621;BME280;29213;50.770;7.298;2023-01-28T07:11:22;102112.47;;;0.03;58.23
43621;BME280;29213;50.770;7.298;2023-01-28T07:13:47;102139.00;;;0.18;58.27
43621;BME280;29213;50.770;7.298;2023-01-28T07:16:13;102086.13;;;-0.16;58.37
43621;BME280;29213;50.770;7.298;2023-01-28T07:18:38;101953.63;;;-0.94;58.19
43621;BME280;29213;50.770;7.298;2023-01-28T07:21:04;102015.09;;;-0.56;58.51
43621;BME280;29213;50.770;7.298;2023-01-28T07:23:29;102045.06;;;-0.40;58.14
43621;BME280;29213;50.770;7.298;2023-01-28T07:26:00;102128.66;;;0.14;58.56
43621;BME280;29213;50.770;7.298;2023-01-28T07:28:25;102130.19;;;0.20;58.26
43621;BME280;29213;50.770;7.298;2023-01-28T07:30:51;101975.66;;;-0.75;58.25
43621;BME280;29213;50.770;7.298;2023-01-28T07:33:16;102053.41;;;-0.30;58.18
43621;BME280;29213;50.770;7.298;2023-01-28T07:35:42;102098.81;;;-0.05;58.68
43621;BME280;29213;50.770;7.298;2023-01-28T07:38:08;102024.59;;;-0.54;58.96
43621;BME280;29213;50.770;7.298;2023-01-28T07:40:34;102092.88;;;-0.10;58.89
43621;BME280;29213;50.770;7.298;2023-01-28T07:42:59;102098.69;;;-0.02;59.02
43621;BME280;29213;50.770;7.298;2023-01-28T07:45:25;102108.25;;;-0.01;58.97
43621;BME280;29213;50.770;7.298;2023-01-28T07:47:58;102135.00;;;0.07;58.69
43621;BME280;29213;50.770;7.298;2023-01-28T07:50:25;102149.31;;;0.22;58.73
43621;BME280;29213;50.770;7.298;2023-01-28T07:52:51;102151.88;;;0.24;58.88
43621;BME280;29213;50.770;7.298;2023-01-28T07:55:16;102167.50;;;0.27;58.80
43621;BME280;29213;50.770;7.298;2023-01-28T08:00:18;102121.00;;;0.08;58.79
43621;BME280;29213;50.770;7.298;2023-01-28T08:02:44;101812.97;;;-1.84;58.43
43621;BME280;29213;50.770;7.298;2023-01-28T08:05:16;102109.00;;;0.03;58.79
43621;BME280;29213;50.770;7.298;2023-01-28T08:07:41;101948.53;;;-0.97;58.43
43621;BME280;29213;50.770;7.298;2023-01-28T08:10:07;102161.06;;;0.36;58.13
43621;BME280;29213;50.770;7.298;2023-01-28T08:12:33;102059.56;;;-0.31;58.40
43621;BME280;29213;50.770;7.298;2023-01-28T08:14:58;102101.09;;;0.04;58.33
43621;BME280;29213;50.770;7.298;2023-01-28T08:17:24;102151.34;;;0.38;58.97
43621;BME280;29213;50.770;7.298;2023-01-28T08:19:49;102043.81;;;-0.29;58.64
43621;BME280;29213;50.770;7.298;2023-01-28T08:22:15;102007.50;;;0.30;73.20
43621;BME280;29213;50.770;7.298;2023-01-28T08:24:40;102160.25;;;1.45;63.26
43621;BME280;29213;50.770;7.298;2023-01-28T08:27:05;102047.84;;;0.71;59.32
43621;BME280;29213;50.770;7.298;2023-01-28T08:29:31;102158.56;;;1.22;58.61
43621;BME280;29213;50.770;7.298;2023-01-28T08:31:56;102147.53;;;1.14;58.47
43621;BME280;29213;50.770;7.298;2023-01-28T08:34:22;102100.78;;;0.80;58.36
43621;BME280;29213;50.770;7.298;2023-01-28T08:36:47;102095.94;;;0.70;58.01
43621;BME280;29213;50.770;7.298;2023-01-28T08:39:13;102135.72;;;0.81;58.21
43621;BME280;29213;50.770;7.298;2023-01-28T08:41:38;102110.91;;;0.67;57.80
43621;BME280;29213;50.770;7.298;2023-01-28T08:44:03;102053.03;;;0.27;57.69
43621;BME280;29213;50.770;7.298;2023-01-28T08:46:29;102123.00;;;0.72;57.54
43621;BME280;29213;50.770;7.298;2023-01-28T08:48:54;101967.16;;;-0.33;57.59
43621;BME280;29213;50.770;7.298;2023-01-28T08:51:20;102010.59;;;-0.05;57.70
43621;BME280;29213;50.770;7.298;2023-01-28T08:53:45;102136.22;;;0.68;57.66
43621;BME280;29213;50.770;7.298;2023-01-28T08:56:11;102153.25;;;0.80;58.15
43621;BME280;29213;50.770;7.298;2023-01-28T08:58:37;102026.00;;;0.03;57.85
43621;BME280;29213;50.770;7.298;2023-01-28T09:01:04;102099.50;;;0.46;58.09
43621;BME280;29213;50.770;7.298;2023-01-28T09:03:29;102063.66;;;0.24;57.91
43621;BME280;29213;50.770;7.298;2023-01-28T09:05:59;102173.78;;;0.91;57.69
43621;BME280;29213;50.770;7.298;2023-01-28T09:08:25;102107.84;;;0.56;57.81
43621;BME280;29213;50.770;7.298;2023-01-28T09:10:55;102165.91;;;0.91;57.55
43621;BME280;29213;50.770;7.298;2023-01-28T09:13:21;102092.31;;;0.51;57.36
43621;BME280;29213;50.770;7.298;2023-01-28T09:15:46;102133.22;;;0.78;57.49
43621;BME280;29213;50.770;7.298;2023-01-28T09:18:12;102091.25;;;0.55;57.28
43621;BME280;29213;50.770;7.298;2023-01-28T09:20:38;102135.72;;;0.81;57.32
43621;BME280;29213;50.770;7.298;2023-01-28T09:23:03;102114.50;;;0.65;57.30
43621;BME280;29213;50.770;7.298;2023-01-28T09:25:29;102104.84;;;0.43;56.93
43621;BME280;29213;50.770;7.298;2023-01-28T09:27:54;102201.19;;;1.06;56.72
43621;BME280;29213;50.770;7.298;2023-01-28T09:30:20;102186.53;;;1.01;56.74
43621;BME280;29213;50.770;7.298;2023-01-28T09:32:49;102220.88;;;1.17;56.85
43621;BME280;29213;50.770;7.298;2023-01-28T09:35:15;102080.78;;;0.33;56.31
43621;BME280;29213;50.770;7.298;2023-01-28T09:37:42;102120.84;;;0.59;56.21
43621;BME280;29213;50.770;7.298;2023-01-28T09:40:12;102200.97;;;1.13;56.46
43621;BME280;29213;50.770;7.298;2023-01-28T09:45:24;102182.38;;;0.95;56.05
43621;BME280;29213;50.770;7.298;2023-01-28T09:47:55;102235.41;;;1.26;55.83
43621;BME280;29213;50.770;7.298;2023-01-28T09:50:27;102230.41;;;1.19;56.14
43621;BME280;29213;50.770;7.298;2023-01-28T09:53:01;102169.13;;;0.76;55.80
43621;BME280;29213;50.770;7.298;2023-01-28T09:55:32;102242.63;;;1.20;55.99
43621;BME280;29213;50.770;7.298;2023-01-28T09:57:58;102184.34;;;0.90;55.49
43621;BME280;29213;50.770;7.298;2023-01-28T10:00:32;102196.47;;;0.92;55.98
43621;BME280;29213;50.770;7.298;2023-01-28T10:03:22;102229.56;;;1.19;55.10
43621;BME280;29213;50.770;7.298;2023-01-28T10:06:06;102208.22;;;1.06;55.15
43621;BME280;29213;50.770;7.298;2023-01-28T10:17:15;102258.72;;;1.33;54.63
43621;BME280;29213;50.770;7.298;2023-01-28T10:19:59;102243.19;;;1.29;54.90
43621;BME280;29213;50.770;7.298;2023-01-28T10:22:31;102255.75;;;1.43;54.54
43621;BME280;29213;50.770;7.298;2023-01-28T10:25:02;102169.47;;;0.90;54.05
43621;BME280;29213;50.770;7.298;2023-01-28T10:27:31;102216.25;;;1.24;53.67
43621;BME280;29213;50.770;7.298;2023-01-28T10:29:59;102253.72;;;1.50;53.67
43621;BME280;29213;50.770;7.298;2023-01-28T10:32:32;102256.94;;;1.56;53.53
43621;BME280;29213;50.770;7.298;2023-01-28T10:35:01;102211.47;;;1.33;53.39
43621;BME280;29213;50.770;7.298;2023-01-28T10:37:32;102203.50;;;1.37;53.14
43621;BME280;29213;50.770;7.298;2023-01-28T10:39:59;102241.72;;;1.65;53.00
43621;BME280;29213;50.770;7.298;2023-01-28T10:42:33;102242.56;;;1.65;52.18
43621;BME280;29213;50.770;7.298;2023-01-28T10:45:02;102168.34;;;1.18;52.12
43621;BME280;29213;50.770;7.298;2023-01-28T10:47:37;102226.28;;;1.57;51.81
43621;BME280;29213;50.770;7.298;2023-01-28T10:50:30;102189.63;;;1.33;51.75
43621;BME280;29213;50.770;7.298;2023-01-28T10:53:00;102217.28;;;1.42;51.08
43621;BME280;29213;50.770;7.298;2023-01-28T10:55:29;102217.22;;;1.43;51.05
43621;BME280;29213;50.770;7.298;2023-01-28T10:57:55;102118.59;;;0.94;50.64
43621;BME280;29213;50.770;7.298;2023-01-28T11:00:27;102210.78;;;1.51;50.64
43621;BME280;29213;50.770;7.298;2023-01-28T11:02:55;102114.91;;;0.99;50.42
43621;BME280;29213;50.770;7.298;2023-01-28T11:05:27;102243.22;;;1.70;50.83
43621;BME280;29213;50.770;7.298;2023-01-28T11:08:29;102216.44;;;1.62;50.67
43621;BME280;29213;50.770;7.298;2023-01-28T11:10:56;102236.56;;;1.84;54.00
43621;BME280;29213;50.770;7.298;2023-01-28T11:13:22;102242.28;;;2.14;52.58
43621;BME280;29213;50.770;7.298;2023-01-28T11:15:54;102256.06;;;2.60;60.63
43621;BME280;29213;50.770;7.298;2023-01-28T11:18:29;102177.72;;;2.28;52.63
43621;BME280;29213;50.770;7.298;2023-01-28T11:21:01;102207.00;;;2.39;50.61
43621;BME280;29213;50.770;7.298;2023-01-28T11:23:30;102182.81;;;2.12;50.64
43621;BME280;29213;50.770;7.298;2023-01-28T11:26:07;102238.97;;;2.49;50.02
43621;BME280;29213;50.770;7.298;2023-01-28T11:28:40;102167.81;;;1.93;49.89
43621;BME280;29213;50.770;7.298;2023-01-28T11:31:06;102163.63;;;1.89;49.23
43621;BME280;29213;50.770;7.298;2023-01-28T11:33:37;102227.31;;;2.36;49.81
43621;BME280;29213;50.770;7.298;2023-01-28T11:36:13;102181.88;;;2.13;49.24
43621;BME280;29213;50.770;7.298;2023-01-28T11:38:52;102224.75;;;2.34;49.13
43621;BME280;29213;50.770;7.298;2023-01-28T11:41:25;102223.22;;;2.30;48.80
43621;BME280;29213;50.770;7.298;2023-01-28T11:43:51;102207.84;;;2.21;48.95
43621;BME280;29213;50.770;7.298;2023-01-28T11:48:51;102229.47;;;2.27;48.49
43621;BME280;29213;50.770;7.298;2023-01-28T11:51:35;102226.47;;;2.16;48.13
43621;BME280;29213;50.770;7.298;2023-01-28T11:54:20;102160.25;;;1.66;47.67
43621;BME280;29213;50.770;7.298;2023-01-28T11:59:47;102222.38;;;2.09;47.53
43621;BME280;29213;50.770;7.298;2023-01-28T12:07:53;102227.78;;;2.06;48.08
43621;BME280;29213;50.770;7.298;2023-01-28T12:10:37;102218.25;;;2.03;47.83
43621;BME280;29213;50.770;7.298;2023-01-28T12:13:25;102225.00;;;2.09;48.27
43621;BME280;29213;50.770;7.298;2023-01-28T12:19:07;102167.00;;;1.72;47.53
43621;BME280;29213;50.770;7.298;2023-01-28T12:24:33;102216.09;;;1.91;47.22
43621;BME280;29213;50.770;7.298;2023-01-28T12:29:54;102206.84;;;1.82;47.51
43621;BME280;29213;50.770;7.298;2023-01-28T12:41:50;102203.81;;;1.70;47.91
43621;BME280;29213;50.770;7.298;2023-01-28T12:44:24;102209.47;;;1.82;47.32
43621;BME280;29213;50.770;7.298;2023-01-28T12:47:01;102184.94;;;1.62;46.96
43621;BME280;29213;50.770;7.298;2023-01-28T12:52:17;102211.44;;;1.77;47.23
43621;BME280;29213;50.770;7.298;2023-01-28T12:55:10;102205.84;;;1.84;47.30
43621;BME280;29213;50.770;7.298;2023-01-28T12:57:37;102002.72;;;0.62;47.41
43621;BME280;29213;50.770;7.298;2023-01-28T13:00:22;102209.84;;;1.93;47.33
43621;BME280;29213;50.770;7.298;2023-01-28T13:05:39;102205.53;;;1.92;46.77
43621;BME280;29213;50.770;7.298;2023-01-28T13:08:26;102165.50;;;1.66;46.67
43621;BME280;29213;50.770;7.298;2023-01-28T13:10:52;102179.28;;;1.71;46.35
43621;BME280;29213;50.770;7.298;2023-01-28T13:13:28;102173.88;;;1.74;46.79
43621;BME280;29213;50.770;7.298;2023-01-28T13:15:54;102135.75;;;1.45;46.56
43621;BME280;29213;50.770;7.298;2023-01-28T13:21:03;102142.03;;;1.61;46.86
43621;BME280;29213;50.770;7.298;2023-01-28T13:25:56;102200.69;;;2.04;46.52
43621;BME280;29213;50.770;7.298;2023-01-28T13:28:33;102202.16;;;2.11;46.86
43621;BME280;29213;50.770;7.298;2023-01-28T13:31:08;102116.38;;;1.68;46.63
43621;BME280;29213;50.770;7.298;2023-01-28T13:33:37;102116.59;;;1.64;46.92
43621;BME280;29213;50.770;7.298;2023-01-28T13:36:20;102146.94;;;1.90;47.10
43621;BME280;29213;50.770;7.298;2023-01-28T13:38:47;102140.81;;;1.89;46.47
43621;BME280;29213;50.770;7.298;2023-01-28T13:41:22;102060.84;;;1.36;46.10
43621;BME280;29213;50.770;7.298;2023-01-28T13:43:47;102076.06;;;1.48;46.99
43621;BME280;29213;50.770;7.298;2023-01-28T13:46:26;102172.81;;;1.99;46.42
43621;BME280;29213;50.770;7.298;2023-01-28T13:48:54;102184.38;;;2.35;64.06
43621;BME280;29213;50.770;7.298;2023-01-28T13:51:26;102184.13;;;4.04;58.88
43621;BME280;29213;50.770;7.298;2023-01-28T13:53:58;102168.38;;;4.84;49.59
43621;BME280;29213;50.770;7.298;2023-01-28T13:56:27;102163.31;;;4.47;45.85
43621;BME280;29213;50.770;7.298;2023-01-28T14:01:37;102142.84;;;3.86;44.18
43621;BME280;29213;50.770;7.298;2023-01-28T14:09:57;102107.56;;;3.20;43.96
43621;BME280;29213;50.770;7.298;2023-01-28T14:18:13;102078.47;;;2.51;43.02
43621;BME280;29213;50.770;7.298;2023-01-28T14:20:43;102095.63;;;2.21;43.05
43621;BME280;29213;50.770;7.298;2023-01-28T14:23:20;102122.28;;;2.13;43.30
43621;BME280;29213;50.770;7.298;2023-01-28T14:31:23;102163.91;;;2.61;43.63
43621;BME280;29213;50.770;7.298;2023-01-28T14:33:50;102083.28;;;2.04;43.35
43621;BME280;29213;50.770;7.298;2023-01-28T14:36:16;102121.28;;;2.35;51.25
43621;BME280;29213;50.770;7.298;2023-01-28T14:38:42;102169.06;;;2.64;44.69